sensor_id;sensor_type;location;lat;lon;timestamp;P1;durP1;ratioP1;P2;durP2;ratioP2
34982;SDS011;21187;50.976;13.720;2023-06-01T00:01:20;5.30;;;3.00;;
34982;SDS011;21187;50.976;13.720;2023-06-01T00:06:23;5.15;;;2.17;;
34982;SDS011;21187;50.976;13.720;2023-06-01T00:11:25;4.60;;;2.33;;
34982;SDS011;21187;50.976;13.720;2023-06-01T00:16:27;4.05;;;2.00;;
34982;SDS011;21187;50.976;13.720;2023-06-01T00:21:32;2.65;;;1.83;;
34982;SDS011;21187;50.976;13.720;2023-06-01T00:26:36;5.22;;;2.03;;
34982;SDS011;21187;50.976;13.720;2023-06-01T00:31:38;7.53;;;2.17;;
34982;SDS011;21187;50.976;13.720;2023-06-01T00:36:41;4.43;;;2.25;;
34982;SDS011;21187;50.976;13.720;2023-06-01T00:41:43;11.73;;;4.07;;
34982;SDS011;21187;50.976;13.720;2023-06-01T00:46:45;4.93;;;1.83;;
34982;SDS011;21187;50.976;13.720;2023-06-01T00:51:47;5.97;;;2.10;;
34982;SDS011;21187;50.976;13.720;2023-06-01T00:56:49;5.22;;;1.98;;
34982;SDS011;21187;50.976;13.720;2023-06-01T01:01:51;7.50;;;1.90;;
34982;SDS011;21187;50.976;13.720;2023-06-01T01:06:57;10.48;;;1.83;;
34982;SDS011;21187;50.976;13.720;2023-06-01T01:12:32;4.68;;;1.88;;
34982;SDS011;21187;50.976;13.720;2023-06-01T01:17:42;8.77;;;1.95;;
34982;SDS011;21187;50.976;13.720;2023-06-01T01:22:54;7.95;;;2.20;;
34982;SDS011;21187;50.976;13.720;2023-06-01T01:28:32;7.93;;;2.33;;
34982;SDS011;21187;50.976;13.720;2023-06-01T01:33:39;7.43;;;2.50;;
34982;SDS011;21187;50.976;13.720;2023-06-01T01:38:43;5.18;;;2.17;;
34982;SDS011;21187;50.976;13.720;2023-06-01T01:43:45;6.15;;;2.00;;
34982;SDS011;21187;50.976;13.720;2023-06-01T01:53:56;5.95;;;1.90;;
34982;SDS011;21187;50.976;13.720;2023-06-01T01:58:59;5.57;;;2.05;;
34982;SDS011;21187;50.976;13.720;2023-06-01T02:04:02;5.25;;;2.28;;
34982;SDS011;21187;50.976;13.720;2023-06-01T02:09:05;8.80;;;2.03;;
34982;SDS011;21187;50.976;13.720;2023-06-01T02:14:09;4.82;;;1.98;;
34982;SDS011;21187;50.976;13.720;2023-06-01T02:19:12;5.47;;;2.20;;
34982;SDS011;21187;50.976;13.720;2023-06-01T02:24:18;5.15;;;2.00;;
34982;SDS011;21187;50.976;13.720;2023-06-01T02:29:20;5.35;;;2.13;;
34982;SDS011;21187;50.976;13.720;2023-06-01T02:34:26;6.07;;;1.85;;
34982;SDS011;21187;50.976;13.720;2023-06-01T02:39:28;6.57;;;2.25;;
34982;SDS011;21187;50.976;13.720;2023-06-01T02:44:31;7.90;;;2.40;;
34982;SDS011;21187;50.976;13.720;2023-06-01T02:49:32;8.02;;;2.15;;
34982;SDS011;21187;50.976;13.720;2023-06-01T02:54:35;7.15;;;2.17;;
34982;SDS011;21187;50.976;13.720;2023-06-01T02:59:53;6.53;;;1.92;;
34982;SDS011;21187;50.976;13.720;2023-06-01T03:04:55;4.55;;;1.85;;
34982;SDS011;21187;50.976;13.720;2023-06-01T03:09:57;6.60;;;2.15;;
34982;SDS011;21187;50.976;13.720;2023-06-01T03:15:19;4.30;;;2.10;;
34982;SDS011;21187;50.976;13.720;2023-06-01T03:20:22;6.55;;;1.80;;
34982;SDS011;21187;50.976;13.720;2023-06-01T03:25:24;3.60;;;1.95;;
34982;SDS011;21187;50.976;13.720;2023-06-01T03:30:30;4.93;;;1.92;;
34982;SDS011;21187;50.976;13.720;2023-06-01T03:35:32;9.35;;;2.08;;
34982;SDS011;21187;50.976;13.720;2023-06-01T03:40:34;6.07;;;1.80;;
34982;SDS011;21187;50.976;13.720;2023-06-01T03:45:36;7.70;;;2.35;;
34982;SDS011;21187;50.976;13.720;2023-06-01T03:50:38;11.60;;;2.22;;
34982;SDS011;21187;50.976;13.720;2023-06-01T03:55:41;4.28;;;1.75;;
34982;SDS011;21187;50.976;13.720;2023-06-01T04:00:57;11.50;;;2.00;;
34982;SDS011;21187;50.976;13.720;2023-06-01T04:06:00;7.72;;;2.00;;
34982;SDS011;21187;50.976;13.720;2023-06-01T04:11:03;9.75;;;1.85;;
34982;SDS011;21187;50.976;13.720;2023-06-01T04:16:05;2.67;;;1.63;;
34982;SDS011;21187;50.976;13.720;2023-06-01T04:21:08;7.32;;;2.65;;
34982;SDS011;21187;50.976;13.720;2023-06-01T04:26:11;5.53;;;2.13;;
34982;SDS011;21187;50.976;13.720;2023-06-01T04:31:13;5.80;;;2.05;;
34982;SDS011;21187;50.976;13.720;2023-06-01T04:36:20;3.08;;;1.70;;
34982;SDS011;21187;50.976;13.720;2023-06-01T04:41:27;9.10;;;2.47;;
34982;SDS011;21187;50.976;13.720;2023-06-01T04:46:32;9.02;;;2.42;;
34982;SDS011;21187;50.976;13.720;2023-06-01T04:51:35;4.32;;;1.95;;
34982;SDS011;21187;50.976;13.720;2023-06-01T04:56:38;4.60;;;1.80;;
34982;SDS011;21187;50.976;13.720;2023-06-01T05:01:40;5.10;;;2.13;;
34982;SDS011;21187;50.976;13.720;2023-06-01T05:06:42;8.40;;;2.10;;
34982;SDS011;21187;50.976;13.720;2023-06-01T05:11:45;6.53;;;2.35;;
34982;SDS011;21187;50.976;13.720;2023-06-01T05:16:46;7.50;;;2.28;;
34982;SDS011;21187;50.976;13.720;2023-06-01T05:21:51;3.53;;;2.00;;
34982;SDS011;21187;50.976;13.720;2023-06-01T05:26:55;5.72;;;2.30;;
34982;SDS011;21187;50.976;13.720;2023-06-01T05:31:57;5.80;;;2.08;;
34982;SDS011;21187;50.976;13.720;2023-06-01T05:36:59;13.20;;;2.28;;
34982;SDS011;21187;50.976;13.720;2023-06-01T05:42:03;4.50;;;1.73;;
34982;SDS011;21187;50.976;13.720;2023-06-01T05:47:10;7.22;;;2.00;;
34982;SDS011;21187;50.976;13.720;2023-06-01T05:52:12;6.80;;;2.55;;
34982;SDS011;21187;50.976;13.720;2023-06-01T05:57:16;6.57;;;2.42;;
34982;SDS011;21187;50.976;13.720;2023-06-01T06:02:19;4.47;;;2.45;;
34982;SDS011;21187;50.976;13.720;2023-06-01T06:07:21;8.43;;;2.38;;
34982;SDS011;21187;50.976;13.720;2023-06-01T06:12:24;8.05;;;3.10;;
34982;SDS011;21187;50.976;13.720;2023-06-01T06:17:26;6.10;;;2.20;;
34982;SDS011;21187;50.976;13.720;2023-06-01T06:22:28;8.75;;;2.80;;
34982;SDS011;21187;50.976;13.720;2023-06-01T06:27:30;8.23;;;2.30;;
34982;SDS011;21187;50.976;13.720;2023-06-01T06:32:32;10.52;;;2.45;;
34982;SDS011;21187;50.976;13.720;2023-06-01T06:37:34;12.18;;;2.53;;
34982;SDS011;21187;50.976;13.720;2023-06-01T06:42:36;8.98;;;2.35;;
34982;SDS011;21187;50.976;13.720;2023-06-01T06:47:38;9.55;;;2.30;;
34982;SDS011;21187;50.976;13.720;2023-06-01T06:52:40;12.20;;;2.38;;
34982;SDS011;21187;50.976;13.720;2023-06-01T06:57:43;8.63;;;2.80;;
34982;SDS011;21187;50.976;13.720;2023-06-01T07:02:45;6.03;;;2.08;;
34982;SDS011;21187;50.976;13.720;2023-06-01T07:07:48;7.55;;;2.33;;
34982;SDS011;21187;50.976;13.720;2023-06-01T07:12:50;10.10;;;2.50;;
34982;SDS011;21187;50.976;13.720;2023-06-01T07:17:52;6.03;;;2.22;;
34982;SDS011;21187;50.976;13.720;2023-06-01T07:22:54;8.52;;;2.15;;
34982;SDS011;21187;50.976;13.720;2023-06-01T07:27:56;7.22;;;2.33;;
34982;SDS011;21187;50.976;13.720;2023-06-01T07:32:59;5.32;;;1.90;;
34982;SDS011;21187;50.976;13.720;2023-06-01T07:38:02;9.15;;;2.05;;
34982;SDS011;21187;50.976;13.720;2023-06-01T07:43:04;12.10;;;2.50;;
34982;SDS011;21187;50.976;13.720;2023-06-01T07:48:06;7.30;;;2.65;;
34982;SDS011;21187;50.976;13.720;2023-06-01T07:53:11;16.42;;;2.58;;
34982;SDS011;21187;50.976;13.720;2023-06-01T07:58:15;7.60;;;1.85;;
34982;SDS011;21187;50.976;13.720;2023-06-01T08:03:17;11.07;;;2.67;;
34982;SDS011;21187;50.976;13.720;2023-06-01T08:08:23;9.40;;;2.65;;
34982;SDS011;21187;50.976;13.720;2023-06-01T08:13:25;6.47;;;2.10;;
34982;SDS011;21187;50.976;13.720;2023-06-01T08:18:27;3.95;;;2.00;;
34982;SDS011;21187;50.976;13.720;2023-06-01T08:23:30;12.88;;;2.28;;
34982;SDS011;21187;50.976;13.720;2023-06-01T08:28:32;5.40;;;2.22;;
34982;SDS011;21187;50.976;13.720;2023-06-01T08:33:34;4.60;;;1.75;;
34982;SDS011;21187;50.976;13.720;2023-06-01T08:38:36;3.70;;;1.70;;
34982;SDS011;21187;50.976;13.720;2023-06-01T08:43:38;10.68;;;1.90;;
34982;SDS011;21187;50.976;13.720;2023-06-01T08:48:41;7.55;;;2.30;;
34982;SDS011;21187;50.976;13.720;2023-06-01T08:53:46;6.15;;;1.85;;
34982;SDS011;21187;50.976;13.720;2023-06-01T08:58:50;5.32;;;2.05;;
34982;SDS011;21187;50.976;13.720;2023-06-01T09:03:53;9.45;;;2.10;;
34982;SDS011;21187;50.976;13.720;2023-06-01T09:08:55;10.85;;;2.05;;
34982;SDS011;21187;50.976;13.720;2023-06-01T09:13:57;3.72;;;1.80;;
34982;SDS011;21187;50.976;13.720;2023-06-01T09:18:59;3.90;;;1.90;;
34982;SDS011;21187;50.976;13.720;2023-06-01T09:24:19;3.88;;;2.03;;
34982;SDS011;21187;50.976;13.720;2023-06-01T09:29:23;6.97;;;1.70;;
34982;SDS011;21187;50.976;13.720;2023-06-01T09:34:25;7.57;;;2.17;;
34982;SDS011;21187;50.976;13.720;2023-06-01T09:39:27;7.07;;;1.95;;
34982;SDS011;21187;50.976;13.720;2023-06-01T09:44:35;6.00;;;1.77;;
34982;SDS011;21187;50.976;13.720;2023-06-01T09:49:43;5.90;;;1.48;;
34982;SDS011;21187;50.976;13.720;2023-06-01T09:54:47;14.63;;;2.28;;
34982;SDS011;21187;50.976;13.720;2023-06-01T09:59:50;5.43;;;2.30;;
34982;SDS011;21187;50.976;13.720;2023-06-01T10:04:52;7.15;;;2.30;;
34982;SDS011;21187;50.976;13.720;2023-06-01T10:09:57;5.50;;;1.98;;
34982;SDS011;21187;50.976;13.720;2023-06-01T10:15:00;5.30;;;2.03;;
34982;SDS011;21187;50.976;13.720;2023-06-01T10:20:25;8.00;;;1.90;;
34982;SDS011;21187;50.976;13.720;2023-06-01T10:25:31;3.83;;;1.67;;
34982;SDS011;21187;50.976;13.720;2023-06-01T10:30:44;6.38;;;1.85;;
34982;SDS011;21187;50.976;13.720;2023-06-01T10:40:49;4.03;;;1.90;;
34982;SDS011;21187;50.976;13.720;2023-06-01T10:45:52;8.48;;;1.77;;
34982;SDS011;21187;50.976;13.720;2023-06-01T10:56:20;8.50;;;1.80;;
34982;SDS011;21187;50.976;13.720;2023-06-01T11:01:23;12.93;;;2.00;;
34982;SDS011;21187;50.976;13.720;2023-06-01T11:06:29;5.15;;;2.15;;
34982;SDS011;21187;50.976;13.720;2023-06-01T11:16:53;8.88;;;2.20;;
34982;SDS011;21187;50.976;13.720;2023-06-01T11:21:59;5.57;;;2.15;;
34982;SDS011;21187;50.976;13.720;2023-06-01T11:27:07;8.07;;;1.98;;
34982;SDS011;21187;50.976;13.720;2023-06-01T11:32:11;9.20;;;2.30;;
34982;SDS011;21187;50.976;13.720;2023-06-01T11:37:17;8.70;;;2.88;;
34982;SDS011;21187;50.976;13.720;2023-06-01T11:42:21;14.63;;;2.65;;
34982;SDS011;21187;50.976;13.720;2023-06-01T11:47:27;6.32;;;2.20;;
34982;SDS011;21187;50.976;13.720;2023-06-01T11:52:31;9.65;;;2.97;;
34982;SDS011;21187;50.976;13.720;2023-06-01T11:57:33;13.63;;;2.47;;
34982;SDS011;21187;50.976;13.720;2023-06-01T12:02:35;5.13;;;1.90;;
34982;SDS011;21187;50.976;13.720;2023-06-01T12:07:47;5.28;;;2.50;;
34982;SDS011;21187;50.976;13.720;2023-06-01T12:12:50;7.57;;;2.47;;
34982;SDS011;21187;50.976;13.720;2023-06-01T12:17:54;6.85;;;2.53;;
34982;SDS011;21187;50.976;13.720;2023-06-01T12:23:01;6.82;;;1.90;;
34982;SDS011;21187;50.976;13.720;2023-06-01T12:28:24;5.18;;;1.98;;
34982;SDS011;21187;50.976;13.720;2023-06-01T12:33:36;7.05;;;2.28;;
34982;SDS011;21187;50.976;13.720;2023-06-01T12:38:49;10.00;;;2.15;;
34982;SDS011;21187;50.976;13.720;2023-06-01T12:43:53;8.38;;;2.53;;
34982;SDS011;21187;50.976;13.720;2023-06-01T12:54:18;13.55;;;3.10;;
34982;SDS011;21187;50.976;13.720;2023-06-01T12:59:21;6.45;;;2.30;;
34982;SDS011;21187;50.976;13.720;2023-06-01T13:04:23;8.35;;;2.80;;
34982;SDS011;21187;50.976;13.720;2023-06-01T13:09:26;7.82;;;3.00;;
34982;SDS011;21187;50.976;13.720;2023-06-01T13:14:28;8.55;;;2.63;;
34982;SDS011;21187;50.976;13.720;2023-06-01T13:19:30;6.65;;;3.45;;
34982;SDS011;21187;50.976;13.720;2023-06-01T13:24:32;8.57;;;3.40;;
34982;SDS011;21187;50.976;13.720;2023-06-01T13:29:54;8.15;;;3.88;;
34982;SDS011;21187;50.976;13.720;2023-06-01T13:34:56;13.60;;;3.38;;
34982;SDS011;21187;50.976;13.720;2023-06-01T13:39:58;6.13;;;2.97;;
34982;SDS011;21187;50.976;13.720;2023-06-01T13:45:00;14.88;;;3.20;;
34982;SDS011;21187;50.976;13.720;2023-06-01T13:50:02;8.82;;;3.42;;
34982;SDS011;21187;50.976;13.720;2023-06-01T13:55:06;6.97;;;3.20;;
34982;SDS011;21187;50.976;13.720;2023-06-01T14:00:09;12.93;;;4.20;;
34982;SDS011;21187;50.976;13.720;2023-06-01T14:05:17;9.18;;;4.25;;
34982;SDS011;21187;50.976;13.720;2023-06-01T14:10:28;11.80;;;4.60;;
34982;SDS011;21187;50.976;13.720;2023-06-01T14:15:30;12.50;;;4.60;;
34982;SDS011;21187;50.976;13.720;2023-06-01T14:20:33;9.50;;;4.57;;
34982;SDS011;21187;50.976;13.720;2023-06-01T14:25:36;14.50;;;4.75;;
34982;SDS011;21187;50.976;13.720;2023-06-01T14:30:38;15.95;;;5.15;;
34982;SDS011;21187;50.976;13.720;2023-06-01T14:35:41;9.85;;;4.68;;
34982;SDS011;21187;50.976;13.720;2023-06-01T14:40:43;16.92;;;5.53;;
34982;SDS011;21187;50.976;13.720;2023-06-01T14:45:45;14.40;;;5.90;;
34982;SDS011;21187;50.976;13.720;2023-06-01T14:50:46;11.40;;;5.88;;
34982;SDS011;21187;50.976;13.720;2023-06-01T14:55:48;12.77;;;5.95;;
34982;SDS011;21187;50.976;13.720;2023-06-01T15:00:50;11.35;;;5.03;;
34982;SDS011;21187;50.976;13.720;2023-06-01T15:05:52;12.60;;;5.45;;
34982;SDS011;21187;50.976;13.720;2023-06-01T15:10:54;12.05;;;4.25;;
34982;SDS011;21187;50.976;13.720;2023-06-01T15:15:56;8.25;;;3.88;;
34982;SDS011;21187;50.976;13.720;2023-06-01T15:20:58;12.20;;;3.70;;
34982;SDS011;21187;50.976;13.720;2023-06-01T15:26:02;9.82;;;2.80;;
34982;SDS011;21187;50.976;13.720;2023-06-01T15:31:05;3.92;;;2.63;;
34982;SDS011;21187;50.976;13.720;2023-06-01T15:36:07;9.27;;;2.80;;
34982;SDS011;21187;50.976;13.720;2023-06-01T15:41:09;6.28;;;3.20;;
34982;SDS011;21187;50.976;13.720;2023-06-01T15:46:14;15.23;;;3.50;;
34982;SDS011;21187;50.976;13.720;2023-06-01T15:51:16;7.05;;;3.05;;
34982;SDS011;21187;50.976;13.720;2023-06-01T15:56:18;6.70;;;3.47;;
34982;SDS011;21187;50.976;13.720;2023-06-01T16:01:20;8.85;;;4.00;;
34982;SDS011;21187;50.976;13.720;2023-06-01T16:06:30;5.93;;;3.45;;
34982;SDS011;21187;50.976;13.720;2023-06-01T16:11:32;7.18;;;3.25;;
34982;SDS011;21187;50.976;13.720;2023-06-01T16:16:34;6.72;;;3.67;;
34982;SDS011;21187;50.976;13.720;2023-06-01T16:21:36;10.63;;;3.78;;
34982;SDS011;21187;50.976;13.720;2023-06-01T16:26:39;10.88;;;3.95;;
34982;SDS011;21187;50.976;13.720;2023-06-01T16:31:42;7.60;;;3.85;;
34982;SDS011;21187;50.976;13.720;2023-06-01T16:36:44;10.50;;;4.00;;
34982;SDS011;21187;50.976;13.720;2023-06-01T16:41:45;6.13;;;3.17;;
34982;SDS011;21187;50.976;13.720;2023-06-01T16:46:47;13.70;;;3.25;;
34982;SDS011;21187;50.976;13.720;2023-06-01T16:51:49;4.82;;;2.75;;
34982;SDS011;21187;50.976;13.720;2023-06-01T16:56:51;6.05;;;2.72;;
34982;SDS011;21187;50.976;13.720;2023-06-01T17:01:53;7.80;;;2.40;;
34982;SDS011;21187;50.976;13.720;2023-06-01T17:06:55;6.05;;;2.80;;
34982;SDS011;21187;50.976;13.720;2023-06-01T17:11:57;8.07;;;2.85;;
34982;SDS011;21187;50.976;13.720;2023-06-01T17:16:59;8.00;;;3.92;;
34982;SDS011;21187;50.976;13.720;2023-06-01T17:22:01;10.68;;;4.00;;
34982;SDS011;21187;50.976;13.720;2023-06-01T17:27:04;8.65;;;3.85;;
34982;SDS011;21187;50.976;13.720;2023-06-01T17:32:07;6.40;;;3.45;;
34982;SDS011;21187;50.976;13.720;2023-06-01T17:37:09;5.25;;;2.92;;
34982;SDS011;21187;50.976;13.720;2023-06-01T17:42:11;7.25;;;3.08;;
34982;SDS011;21187;50.976;13.720;2023-06-01T17:47:13;8.38;;;2.58;;
34982;SDS011;21187;50.976;13.720;2023-06-01T17:52:15;13.63;;;3.10;;
34982;SDS011;21187;50.976;13.720;2023-06-01T17:57:17;4.20;;;3.00;;
34982;SDS011;21187;50.976;13.720;2023-06-01T18:02:19;5.95;;;2.38;;
34982;SDS011;21187;50.976;13.720;2023-06-01T18:07:22;4.30;;;2.33;;
34982;SDS011;21187;50.976;13.720;2023-06-01T18:12:26;4.35;;;2.47;;
34982;SDS011;21187;50.976;13.720;2023-06-01T18:17:28;6.93;;;2.88;;
34982;SDS011;21187;50.976;13.720;2023-06-01T18:22:30;6.45;;;2.50;;
34982;SDS011;21187;50.976;13.720;2023-06-01T18:27:32;8.75;;;2.50;;
34982;SDS011;21187;50.976;13.720;2023-06-01T18:32:34;8.70;;;3.22;;
34982;SDS011;21187;50.976;13.720;2023-06-01T18:37:38;5.18;;;2.35;;
34982;SDS011;21187;50.976;13.720;2023-06-01T18:42:39;5.93;;;2.30;;
34982;SDS011;21187;50.976;13.720;2023-06-01T18:47:43;10.50;;;2.58;;
34982;SDS011;21187;50.976;13.720;2023-06-01T18:52:45;5.25;;;2.88;;
34982;SDS011;21187;50.976;13.720;2023-06-01T18:57:47;4.55;;;2.55;;
34982;SDS011;21187;50.976;13.720;2023-06-01T19:02:49;8.73;;;2.75;;
34982;SDS011;21187;50.976;13.720;2023-06-01T19:07:51;6.43;;;2.80;;
34982;SDS011;21187;50.976;13.720;2023-06-01T19:12:53;4.80;;;2.92;;
34982;SDS011;21187;50.976;13.720;2023-06-01T19:17:55;10.23;;;3.35;;
34982;SDS011;21187;50.976;13.720;2023-06-01T19:22:58;11.98;;;3.28;;
34982;SDS011;21187;50.976;13.720;2023-06-01T19:27:59;15.80;;;3.35;;
34982;SDS011;21187;50.976;13.720;2023-06-01T19:33:01;9.30;;;3.53;;
34982;SDS011;21187;50.976;13.720;2023-06-01T19:38:03;7.97;;;3.25;;
34982;SDS011;21187;50.976;13.720;2023-06-01T19:43:05;7.93;;;3.80;;
34982;SDS011;21187;50.976;13.720;2023-06-01T19:48:36;7.05;;;3.00;;
34982;SDS011;21187;50.976;13.720;2023-06-01T19:53:38;6.20;;;2.92;;
34982;SDS011;21187;50.976;13.720;2023-06-01T19:58:41;8.95;;;3.25;;
34982;SDS011;21187;50.976;13.720;2023-06-01T20:03:43;17.42;;;4.03;;
34982;SDS011;21187;50.976;13.720;2023-06-01T20:08:45;10.00;;;4.03;;
34982;SDS011;21187;50.976;13.720;2023-06-01T20:13:48;11.90;;;3.55;;
34982;SDS011;21187;50.976;13.720;2023-06-01T20:18:49;13.57;;;4.22;;
34982;SDS011;21187;50.976;13.720;2023-06-01T20:23:51;10.23;;;3.75;;
34982;SDS011;21187;50.976;13.720;2023-06-01T20:28:53;12.27;;;4.05;;
34982;SDS011;21187;50.976;13.720;2023-06-01T20:33:58;13.05;;;3.80;;
34982;SDS011;21187;50.976;13.720;2023-06-01T20:39:00;12.18;;;3.40;;
34982;SDS011;21187;50.976;13.720;2023-06-01T20:44:02;12.95;;;3.90;;
34982;SDS011;21187;50.976;13.720;2023-06-01T20:49:04;8.80;;;4.15;;
34982;SDS011;21187;50.976;13.720;2023-06-01T20:54:15;19.65;;;4.50;;
34982;SDS011;21187;50.976;13.720;2023-06-01T21:04:33;17.13;;;4.70;;
34982;SDS011;21187;50.976;13.720;2023-06-01T21:09:39;13.07;;;4.40;;
34982;SDS011;21187;50.976;13.720;2023-06-01T21:14:41;13.75;;;4.18;;
34982;SDS011;21187;50.976;13.720;2023-06-01T21:19:43;7.75;;;4.05;;
34982;SDS011;21187;50.976;13.720;2023-06-01T21:24:45;19.63;;;5.13;;
34982;SDS011;21187;50.976;13.720;2023-06-01T21:29:47;9.40;;;4.03;;
34982;SDS011;21187;50.976;13.720;2023-06-01T21:34:50;11.27;;;4.40;;
34982;SDS011;21187;50.976;13.720;2023-06-01T21:39:52;10.30;;;4.93;;
34982;SDS011;21187;50.976;13.720;2023-06-01T21:44:54;10.48;;;4.15;;
34982;SDS011;21187;50.976;13.720;2023-06-01T21:49:56;11.57;;;4.68;;
34982;SDS011;21187;50.976;13.720;2023-06-01T21:54:58;11.13;;;5.00;;
34982;SDS011;21187;50.976;13.720;2023-06-01T22:00:01;8.48;;;4.15;;
34982;SDS011;21187;50.976;13.720;2023-06-01T22:05:12;10.93;;;4.68;;
34982;SDS011;21187;50.976;13.720;2023-06-01T22:10:14;12.80;;;4.47;;
34982;SDS011;21187;50.976;13.720;2023-06-01T22:15:16;12.88;;;4.85;;
34982;SDS011;21187;50.976;13.720;2023-06-01T22:20:18;12.07;;;4.43;;
34982;SDS011;21187;50.976;13.720;2023-06-01T22:25:21;10.88;;;4.95;;
34982;SDS011;21187;50.976;13.720;2023-06-01T22:30:23;13.20;;;5.30;;
34982;SDS011;21187;50.976;13.720;2023-06-01T22:35:25;13.27;;;4.90;;
34982;SDS011;21187;50.976;13.720;2023-06-01T22:40:27;12.90;;;4.63;;
34982;SDS011;21187;50.976;13.720;2023-06-01T22:45:29;9.45;;;4.65;;
34982;SDS011;21187;50.976;13.720;2023-06-01T22:50:31;9.50;;;4.43;;
34982;SDS011;21187;50.976;13.720;2023-06-01T22:55:33;10.43;;;4.30;;
34982;SDS011;21187;50.976;13.720;2023-06-01T23:00:35;8.25;;;4.60;;
34982;SDS011;21187;50.976;13.720;2023-06-01T23:05:37;11.00;;;4.75;;
34982;SDS011;21187;50.976;13.720;2023-06-01T23:10:41;11.00;;;4.57;;
34982;SDS011;21187;50.976;13.720;2023-06-01T23:15:51;18.10;;;4.40;;
34982;SDS011;21187;50.976;13.720;2023-06-01T23:20:56;10.70;;;4.38;;
34982;SDS011;21187;50.976;13.720;2023-06-01T23:26:00;8.05;;;4.55;;
34982;SDS011;21187;50.976;13.720;2023-06-01T23:31:03;12.45;;;4.30;;
34982;SDS011;21187;50.976;13.720;2023-06-01T23:36:05;22.77;;;5.22;;
34982;SDS011;21187;50.976;13.720;2023-06-01T23:41:07;12.18;;;4.63;;
34982;SDS011;21187;50.976;13.720;2023-06-01T23:46:09;9.98;;;4.60;;
34982;SDS011;21187;50.976;13.720;2023-06-01T23:51:12;15.70;;;5.43;;
34982;SDS011;21187;50.976;13.720;2023-06-01T23:56:14;13.85;;;4.60;;
